sensor_id;sensor_type;location;lat;lon;timestamp;P1;durP1;ratioP1;P2;durP2;ratioP2
17763;SDS011;22245;52.832;13.816;2023-03-23T00:02:06;6.28;;;2.67;;
17763;SDS011;22245;52.832;13.816;2023-03-23T00:05:27;5.95;;;2.85;;
17763;SDS011;22245;52.832;13.816;2023-03-23T00:08:49;5.97;;;3.05;;
17763;SDS011;22245;52.832;13.816;2023-03-23T00:12:15;5.57;;;2.50;;
17763;SDS011;22245;52.832;13.816;2023-03-23T00:15:35;6.57;;;3.05;;
17763;SDS011;22245;52.832;13.816;2023-03-23T00:19:02;6.75;;;2.60;;
17763;SDS011;22245;52.832;13.816;2023-03-23T00:22:24;5.32;;;2.78;;
17763;SDS011;22245;52.832;13.816;2023-03-23T00:25:45;5.00;;;2.40;;
17763;SDS011;22245;52.832;13.816;2023-03-23T00:29:08;5.63;;;2.92;;
17763;SDS011;22245;52.832;13.816;2023-03-23T00:32:33;4.88;;;2.50;;
17763;SDS011;22245;52.832;13.816;2023-03-23T00:35:56;4.95;;;2.55;;
17763;SDS011;22245;52.832;13.816;2023-03-23T00:39:17;3.63;;;2.40;;
17763;SDS011;22245;52.832;13.816;2023-03-23T00:42:40;4.22;;;2.60;;
17763;SDS011;22245;52.832;13.816;2023-03-23T00:46:03;3.72;;;2.60;;
17763;SDS011;22245;52.832;13.816;2023-03-23T00:49:27;4.10;;;2.25;;
17763;SDS011;22245;52.832;13.816;2023-03-23T00:52:50;4.82;;;2.70;;
17763;SDS011;22245;52.832;13.816;2023-03-23T00:56:11;4.05;;;2.35;;
17763;SDS011;22245;52.832;13.816;2023-03-23T00:59:32;4.50;;;2.92;;
17763;SDS011;22245;52.832;13.816;2023-03-23T01:02:53;2.65;;;2.35;;
17763;SDS011;22245;52.832;13.816;2023-03-23T01:06:14;4.75;;;2.70;;
17763;SDS011;22245;52.832;13.816;2023-03-23T01:09:36;3.38;;;2.55;;
17763;SDS011;22245;52.832;13.816;2023-03-23T01:12:58;4.18;;;2.40;;
17763;SDS011;22245;52.832;13.816;2023-03-23T01:16:20;5.55;;;2.55;;
17763;SDS011;22245;52.832;13.816;2023-03-23T01:19:41;4.10;;;2.50;;
17763;SDS011;22245;52.832;13.816;2023-03-23T01:23:02;5.05;;;2.58;;
17763;SDS011;22245;52.832;13.816;2023-03-23T01:26:26;4.13;;;2.53;;
17763;SDS011;22245;52.832;13.816;2023-03-23T01:29:48;4.20;;;2.20;;
17763;SDS011;22245;52.832;13.816;2023-03-23T01:33:09;4.18;;;2.60;;
17763;SDS011;22245;52.832;13.816;2023-03-23T01:36:30;3.25;;;2.50;;
17763;SDS011;22245;52.832;13.816;2023-03-23T01:39:55;3.60;;;2.25;;
17763;SDS011;22245;52.832;13.816;2023-03-23T01:43:17;4.18;;;2.40;;
17763;SDS011;22245;52.832;13.816;2023-03-23T01:46:38;3.03;;;2.15;;
17763;SDS011;22245;52.832;13.816;2023-03-23T01:49:59;5.25;;;2.28;;
17763;SDS011;22245;52.832;13.816;2023-03-23T01:53:20;3.72;;;2.28;;
17763;SDS011;22245;52.832;13.816;2023-03-23T01:56:45;4.60;;;2.25;;
17763;SDS011;22245;52.832;13.816;2023-03-23T02:00:10;4.15;;;2.30;;
17763;SDS011;22245;52.832;13.816;2023-03-23T02:03:34;3.28;;;2.70;;
17763;SDS011;22245;52.832;13.816;2023-03-23T02:06:57;3.60;;;2.35;;
17763;SDS011;22245;52.832;13.816;2023-03-23T02:10:20;4.95;;;2.35;;
17763;SDS011;22245;52.832;13.816;2023-03-23T02:13:40;3.55;;;2.28;;
17763;SDS011;22245;52.832;13.816;2023-03-23T02:17:04;3.35;;;2.30;;
17763;SDS011;22245;52.832;13.816;2023-03-23T02:20:38;2.97;;;2.30;;
17763;SDS011;22245;52.832;13.816;2023-03-23T02:28:06;3.15;;;2.22;;
17763;SDS011;22245;52.832;13.816;2023-03-23T02:31:47;2.33;;;2.05;;
17763;SDS011;22245;52.832;13.816;2023-03-23T02:35:23;5.20;;;2.20;;
17763;SDS011;22245;52.832;13.816;2023-03-23T02:38:51;3.13;;;2.20;;
17763;SDS011;22245;52.832;13.816;2023-03-23T02:42:18;3.38;;;2.25;;
17763;SDS011;22245;52.832;13.816;2023-03-23T02:45:43;3.88;;;2.30;;
17763;SDS011;22245;52.832;13.816;2023-03-23T02:49:05;5.60;;;2.50;;
17763;SDS011;22245;52.832;13.816;2023-03-23T02:52:31;3.50;;;2.28;;
17763;SDS011;22245;52.832;13.816;2023-03-23T02:55:53;4.32;;;2.88;;
17763;SDS011;22245;52.832;13.816;2023-03-23T02:59:19;4.18;;;2.97;;
17763;SDS011;22245;52.832;13.816;2023-03-23T03:02:41;2.55;;;2.28;;
17763;SDS011;22245;52.832;13.816;2023-03-23T03:06:06;2.60;;;2.28;;
17763;SDS011;22245;52.832;13.816;2023-03-23T03:09:40;3.28;;;1.98;;
17763;SDS011;22245;52.832;13.816;2023-03-23T03:13:09;4.57;;;2.10;;
17763;SDS011;22245;52.832;13.816;2023-03-23T03:16:36;4.78;;;2.45;;
17763;SDS011;22245;52.832;13.816;2023-03-23T03:20:03;3.70;;;2.60;;
17763;SDS011;22245;52.832;13.816;2023-03-23T03:23:29;9.75;;;2.60;;
17763;SDS011;22245;52.832;13.816;2023-03-23T03:26:56;4.88;;;2.45;;
17763;SDS011;22245;52.832;13.816;2023-03-23T03:30:34;3.65;;;2.70;;
17763;SDS011;22245;52.832;13.816;2023-03-23T03:33:59;3.20;;;2.35;;
17763;SDS011;22245;52.832;13.816;2023-03-23T03:37:23;4.82;;;2.90;;
17763;SDS011;22245;52.832;13.816;2023-03-23T03:40:44;3.47;;;2.60;;
17763;SDS011;22245;52.832;13.816;2023-03-23T03:44:06;4.07;;;2.55;;
17763;SDS011;22245;52.832;13.816;2023-03-23T03:47:28;3.85;;;2.65;;
17763;SDS011;22245;52.832;13.816;2023-03-23T03:50:48;3.28;;;2.47;;
17763;SDS011;22245;52.832;13.816;2023-03-23T03:54:11;3.75;;;2.30;;
17763;SDS011;22245;52.832;13.816;2023-03-23T03:57:31;3.35;;;2.42;;
17763;SDS011;22245;52.832;13.816;2023-03-23T04:00:53;4.43;;;2.60;;
17763;SDS011;22245;52.832;13.816;2023-03-23T04:04:19;3.45;;;2.50;;
17763;SDS011;22245;52.832;13.816;2023-03-23T04:07:41;4.63;;;2.60;;
17763;SDS011;22245;52.832;13.816;2023-03-23T04:11:02;2.67;;;2.20;;
17763;SDS011;22245;52.832;13.816;2023-03-23T04:14:25;4.20;;;2.60;;
17763;SDS011;22245;52.832;13.816;2023-03-23T04:17:49;4.55;;;3.00;;
17763;SDS011;22245;52.832;13.816;2023-03-23T04:21:10;4.47;;;2.92;;
17763;SDS011;22245;52.832;13.816;2023-03-23T04:24:31;3.95;;;2.67;;
17763;SDS011;22245;52.832;13.816;2023-03-23T04:27:53;8.07;;;2.78;;
17763;SDS011;22245;52.832;13.816;2023-03-23T04:31:21;4.85;;;2.83;;
17763;SDS011;22245;52.832;13.816;2023-03-23T04:34:48;5.68;;;2.70;;
17763;SDS011;22245;52.832;13.816;2023-03-23T04:38:10;6.15;;;2.78;;
17763;SDS011;22245;52.832;13.816;2023-03-23T04:41:33;5.82;;;3.05;;
17763;SDS011;22245;52.832;13.816;2023-03-23T04:45:29;4.95;;;2.90;;
17763;SDS011;22245;52.832;13.816;2023-03-23T04:48:53;5.45;;;3.20;;
17763;SDS011;22245;52.832;13.816;2023-03-23T04:52:21;4.63;;;3.10;;
17763;SDS011;22245;52.832;13.816;2023-03-23T04:55:48;4.80;;;3.22;;
17763;SDS011;22245;52.832;13.816;2023-03-23T04:59:11;5.95;;;3.15;;
17763;SDS011;22245;52.832;13.816;2023-03-23T05:02:44;5.28;;;3.70;;
17763;SDS011;22245;52.832;13.816;2023-03-23T05:06:06;5.35;;;3.35;;
17763;SDS011;22245;52.832;13.816;2023-03-23T05:09:28;6.03;;;3.15;;
17763;SDS011;22245;52.832;13.816;2023-03-23T05:12:49;5.43;;;3.42;;
17763;SDS011;22245;52.832;13.816;2023-03-23T05:16:11;5.97;;;3.58;;
17763;SDS011;22245;52.832;13.816;2023-03-23T05:19:33;5.60;;;3.30;;
17763;SDS011;22245;52.832;13.816;2023-03-23T05:23:02;6.00;;;3.22;;
17763;SDS011;22245;52.832;13.816;2023-03-23T05:26:28;7.07;;;3.38;;
17763;SDS011;22245;52.832;13.816;2023-03-23T05:29:56;4.97;;;3.47;;
17763;SDS011;22245;52.832;13.816;2023-03-23T05:33:17;4.75;;;3.28;;
17763;SDS011;22245;52.832;13.816;2023-03-23T05:36:43;8.55;;;3.33;;
17763;SDS011;22245;52.832;13.816;2023-03-23T05:40:12;6.88;;;3.25;;
17763;SDS011;22245;52.832;13.816;2023-03-23T05:43:49;5.40;;;3.67;;
17763;SDS011;22245;52.832;13.816;2023-03-23T05:47:30;6.55;;;3.17;;
17763;SDS011;22245;52.832;13.816;2023-03-23T05:50:56;5.03;;;2.95;;
17763;SDS011;22245;52.832;13.816;2023-03-23T05:54:18;6.25;;;3.47;;
17763;SDS011;22245;52.832;13.816;2023-03-23T05:57:41;6.13;;;3.00;;
17763;SDS011;22245;52.832;13.816;2023-03-23T06:01:25;7.00;;;4.00;;
17763;SDS011;22245;52.832;13.816;2023-03-23T06:04:47;7.80;;;3.92;;
17763;SDS011;22245;52.832;13.816;2023-03-23T06:08:18;6.22;;;3.75;;
17763;SDS011;22245;52.832;13.816;2023-03-23T06:11:39;5.32;;;3.72;;
17763;SDS011;22245;52.832;13.816;2023-03-23T06:15:18;5.32;;;3.83;;
17763;SDS011;22245;52.832;13.816;2023-03-23T06:19:03;6.00;;;3.60;;
17763;SDS011;22245;52.832;13.816;2023-03-23T06:22:29;6.32;;;3.72;;
17763;SDS011;22245;52.832;13.816;2023-03-23T06:26:04;5.57;;;3.35;;
17763;SDS011;22245;52.832;13.816;2023-03-23T06:29:27;7.07;;;3.88;;
17763;SDS011;22245;52.832;13.816;2023-03-23T06:32:48;5.45;;;3.00;;
17763;SDS011;22245;52.832;13.816;2023-03-23T06:36:19;5.85;;;3.30;;
17763;SDS011;22245;52.832;13.816;2023-03-23T06:40:02;6.05;;;3.03;;
17763;SDS011;22245;52.832;13.816;2023-03-23T06:43:29;6.50;;;3.40;;
17763;SDS011;22245;52.832;13.816;2023-03-23T06:47:00;5.88;;;3.33;;
17763;SDS011;22245;52.832;13.816;2023-03-23T06:50:25;6.60;;;3.35;;
17763;SDS011;22245;52.832;13.816;2023-03-23T06:53:49;6.55;;;3.30;;
17763;SDS011;22245;52.832;13.816;2023-03-23T06:57:10;6.15;;;3.30;;
17763;SDS011;22245;52.832;13.816;2023-03-23T07:00:30;6.93;;;3.63;;
17763;SDS011;22245;52.832;13.816;2023-03-23T07:03:51;5.13;;;3.35;;
17763;SDS011;22245;52.832;13.816;2023-03-23T07:07:22;6.28;;;2.92;;
17763;SDS011;22245;52.832;13.816;2023-03-23T07:10:51;4.45;;;3.17;;
17763;SDS011;22245;52.832;13.816;2023-03-23T07:14:16;6.22;;;2.88;;
17763;SDS011;22245;52.832;13.816;2023-03-23T07:17:37;5.10;;;2.95;;
17763;SDS011;22245;52.832;13.816;2023-03-23T07:21:09;3.22;;;2.58;;
17763;SDS011;22245;52.832;13.816;2023-03-23T07:24:32;6.70;;;3.40;;
17763;SDS011;22245;52.832;13.816;2023-03-23T07:28:15;4.30;;;3.08;;
17763;SDS011;22245;52.832;13.816;2023-03-23T07:31:37;5.65;;;2.90;;
17763;SDS011;22245;52.832;13.816;2023-03-23T07:34:58;6.15;;;2.80;;
17763;SDS011;22245;52.832;13.816;2023-03-23T07:38:45;7.95;;;2.30;;
17763;SDS011;22245;52.832;13.816;2023-03-23T07:42:08;3.28;;;2.42;;
17763;SDS011;22245;52.832;13.816;2023-03-23T07:45:43;5.22;;;2.70;;
17763;SDS011;22245;52.832;13.816;2023-03-23T07:49:06;3.78;;;2.28;;
17763;SDS011;22245;52.832;13.816;2023-03-23T07:52:33;5.28;;;2.72;;
17763;SDS011;22245;52.832;13.816;2023-03-23T07:55:55;4.00;;;2.55;;
17763;SDS011;22245;52.832;13.816;2023-03-23T07:59:36;4.03;;;2.20;;
17763;SDS011;22245;52.832;13.816;2023-03-23T08:02:58;2.88;;;2.08;;
17763;SDS011;22245;52.832;13.816;2023-03-23T08:06:22;3.00;;;2.10;;
17763;SDS011;22245;52.832;13.816;2023-03-23T08:10:04;4.40;;;2.00;;
17763;SDS011;22245;52.832;13.816;2023-03-23T08:13:58;2.90;;;1.80;;
17763;SDS011;22245;52.832;13.816;2023-03-23T08:17:49;8.32;;;2.47;;
17763;SDS011;22245;52.832;13.816;2023-03-23T08:21:34;7.43;;;2.67;;
17763;SDS011;22245;52.832;13.816;2023-03-23T08:25:17;3.03;;;2.13;;
17763;SDS011;22245;52.832;13.816;2023-03-23T08:29:05;3.97;;;1.98;;
17763;SDS011;22245;52.832;13.816;2023-03-23T08:32:42;3.05;;;2.28;;
17763;SDS011;22245;52.832;13.816;2023-03-23T08:36:29;3.60;;;2.10;;
17763;SDS011;22245;52.832;13.816;2023-03-23T08:40:09;5.25;;;1.95;;
17763;SDS011;22245;52.832;13.816;2023-03-23T08:43:42;3.38;;;2.08;;
17763;SDS011;22245;52.832;13.816;2023-03-23T08:47:21;3.03;;;2.10;;
17763;SDS011;22245;52.832;13.816;2023-03-23T08:50:55;3.75;;;2.15;;
17763;SDS011;22245;52.832;13.816;2023-03-23T08:54:42;5.15;;;2.20;;
17763;SDS011;22245;52.832;13.816;2023-03-23T08:58:27;4.03;;;2.05;;
17763;SDS011;22245;52.832;13.816;2023-03-23T09:01:57;3.97;;;1.95;;
17763;SDS011;22245;52.832;13.816;2023-03-23T09:05:36;4.03;;;2.28;;
17763;SDS011;22245;52.832;13.816;2023-03-23T09:09:18;4.20;;;2.38;;
17763;SDS011;22245;52.832;13.816;2023-03-23T09:12:40;4.30;;;2.08;;
17763;SDS011;22245;52.832;13.816;2023-03-23T09:16:02;2.67;;;2.00;;
17763;SDS011;22245;52.832;13.816;2023-03-23T09:19:24;5.22;;;1.95;;
17763;SDS011;22245;52.832;13.816;2023-03-23T09:22:45;5.35;;;2.47;;
17763;SDS011;22245;52.832;13.816;2023-03-23T09:26:07;6.10;;;2.45;;
17763;SDS011;22245;52.832;13.816;2023-03-23T09:29:28;4.47;;;2.30;;
17763;SDS011;22245;52.832;13.816;2023-03-23T09:32:51;6.10;;;2.60;;
17763;SDS011;22245;52.832;13.816;2023-03-23T09:36:12;4.00;;;2.40;;
17763;SDS011;22245;52.832;13.816;2023-03-23T09:39:36;3.20;;;2.05;;
17763;SDS011;22245;52.832;13.816;2023-03-23T09:43:04;3.60;;;2.10;;
17763;SDS011;22245;52.832;13.816;2023-03-23T09:46:44;4.75;;;2.47;;
17763;SDS011;22245;52.832;13.816;2023-03-23T09:50:15;3.25;;;2.10;;
17763;SDS011;22245;52.832;13.816;2023-03-23T09:53:38;3.55;;;2.38;;
17763;SDS011;22245;52.832;13.816;2023-03-23T09:57:03;3.05;;;2.33;;
17763;SDS011;22245;52.832;13.816;2023-03-23T10:00:26;3.20;;;2.13;;
17763;SDS011;22245;52.832;13.816;2023-03-23T10:03:52;5.18;;;2.40;;
17763;SDS011;22245;52.832;13.816;2023-03-23T10:07:23;3.55;;;2.00;;
17763;SDS011;22245;52.832;13.816;2023-03-23T10:10:48;3.03;;;1.75;;
17763;SDS011;22245;52.832;13.816;2023-03-23T10:14:27;2.85;;;1.70;;
17763;SDS011;22245;52.832;13.816;2023-03-23T10:17:54;2.80;;;1.80;;
17763;SDS011;22245;52.832;13.816;2023-03-23T10:21:20;2.13;;;1.67;;
17763;SDS011;22245;52.832;13.816;2023-03-23T10:24:47;3.90;;;1.75;;
17763;SDS011;22245;52.832;13.816;2023-03-23T10:28:11;1.98;;;1.60;;
17763;SDS011;22245;52.832;13.816;2023-03-23T10:31:35;4.63;;;1.67;;
17763;SDS011;22245;52.832;13.816;2023-03-23T10:34:59;2.60;;;1.80;;
17763;SDS011;22245;52.832;13.816;2023-03-23T10:38:24;3.80;;;1.65;;
17763;SDS011;22245;52.832;13.816;2023-03-23T10:41:51;5.18;;;1.60;;
17763;SDS011;22245;52.832;13.816;2023-03-23T10:45:14;4.00;;;1.63;;
17763;SDS011;22245;52.832;13.816;2023-03-23T10:48:38;2.13;;;1.40;;
17763;SDS011;22245;52.832;13.816;2023-03-23T10:52:01;4.32;;;1.60;;
17763;SDS011;22245;52.832;13.816;2023-03-23T10:55:35;2.88;;;1.60;;
17763;SDS011;22245;52.832;13.816;2023-03-23T10:59:10;2.92;;;1.50;;
17763;SDS011;22245;52.832;13.816;2023-03-23T11:02:35;4.63;;;1.55;;
17763;SDS011;22245;52.832;13.816;2023-03-23T11:05:58;2.72;;;1.98;;
17763;SDS011;22245;52.832;13.816;2023-03-23T11:09:32;3.25;;;1.55;;
17763;SDS011;22245;52.832;13.816;2023-03-23T11:12:56;2.20;;;1.60;;
17763;SDS011;22245;52.832;13.816;2023-03-23T11:16:27;2.20;;;1.50;;
17763;SDS011;22245;52.832;13.816;2023-03-23T11:19:51;1.80;;;1.40;;
17763;SDS011;22245;52.832;13.816;2023-03-23T11:23:18;3.35;;;1.60;;
17763;SDS011;22245;52.832;13.816;2023-03-23T11:26:41;2.17;;;1.58;;
17763;SDS011;22245;52.832;13.816;2023-03-23T11:30:07;3.05;;;1.42;;
17763;SDS011;22245;52.832;13.816;2023-03-23T11:33:34;3.40;;;1.80;;
17763;SDS011;22245;52.832;13.816;2023-03-23T11:36:58;2.28;;;1.42;;
17763;SDS011;22245;52.832;13.816;2023-03-23T11:40:22;4.47;;;1.52;;
17763;SDS011;22245;52.832;13.816;2023-03-23T11:43:45;2.97;;;1.70;;
17763;SDS011;22245;52.832;13.816;2023-03-23T11:47:08;5.15;;;1.80;;
17763;SDS011;22245;52.832;13.816;2023-03-23T11:50:44;3.88;;;1.50;;
17763;SDS011;22245;52.832;13.816;2023-03-23T11:54:15;2.15;;;1.60;;
17763;SDS011;22245;52.832;13.816;2023-03-23T11:57:40;2.47;;;1.48;;
17763;SDS011;22245;52.832;13.816;2023-03-23T12:01:04;2.35;;;1.60;;
17763;SDS011;22245;52.832;13.816;2023-03-23T12:04:35;4.85;;;1.58;;
17763;SDS011;22245;52.832;13.816;2023-03-23T12:08:09;3.45;;;1.35;;
17763;SDS011;22245;52.832;13.816;2023-03-23T12:11:44;2.38;;;1.30;;
17763;SDS011;22245;52.832;13.816;2023-03-23T12:15:15;4.75;;;1.50;;
17763;SDS011;22245;52.832;13.816;2023-03-23T12:18:43;3.08;;;1.48;;
17763;SDS011;22245;52.832;13.816;2023-03-23T12:22:15;1.80;;;1.30;;
17763;SDS011;22245;52.832;13.816;2023-03-23T12:29:45;3.40;;;1.33;;
17763;SDS011;22245;52.832;13.816;2023-03-23T12:33:18;4.50;;;1.50;;
17763;SDS011;22245;52.832;13.816;2023-03-23T12:36:50;4.53;;;1.77;;
17763;SDS011;22245;52.832;13.816;2023-03-23T12:40:23;2.40;;;1.45;;
17763;SDS011;22245;52.832;13.816;2023-03-23T12:44:05;2.55;;;1.33;;
17763;SDS011;22245;52.832;13.816;2023-03-23T12:47:32;3.80;;;1.40;;
17763;SDS011;22245;52.832;13.816;2023-03-23T12:51:02;4.43;;;1.75;;
17763;SDS011;22245;52.832;13.816;2023-03-23T12:54:31;3.92;;;1.60;;
17763;SDS011;22245;52.832;13.816;2023-03-23T12:57:57;6.68;;;2.10;;
17763;SDS011;22245;52.832;13.816;2023-03-23T13:01:23;1.85;;;1.35;;
17763;SDS011;22245;52.832;13.816;2023-03-23T13:04:48;3.30;;;1.60;;
17763;SDS011;22245;52.832;13.816;2023-03-23T13:08:14;2.35;;;1.63;;
17763;SDS011;22245;52.832;13.816;2023-03-23T13:11:38;4.32;;;1.40;;
17763;SDS011;22245;52.832;13.816;2023-03-23T13:15:03;3.05;;;1.50;;
17763;SDS011;22245;52.832;13.816;2023-03-23T13:18:40;3.35;;;1.50;;
17763;SDS011;22245;52.832;13.816;2023-03-23T13:22:06;4.50;;;1.90;;
17763;SDS011;22245;52.832;13.816;2023-03-23T13:25:38;3.28;;;1.75;;
17763;SDS011;22245;52.832;13.816;2023-03-23T13:29:08;4.30;;;1.58;;
17763;SDS011;22245;52.832;13.816;2023-03-23T13:32:34;1.75;;;1.38;;
17763;SDS011;22245;52.832;13.816;2023-03-23T13:36:01;2.90;;;1.50;;
17763;SDS011;22245;52.832;13.816;2023-03-23T13:39:27;2.42;;;1.30;;
17763;SDS011;22245;52.832;13.816;2023-03-23T13:42:50;2.63;;;1.60;;
17763;SDS011;22245;52.832;13.816;2023-03-23T13:46:22;3.95;;;1.88;;
17763;SDS011;22245;52.832;13.816;2023-03-23T13:49:46;2.67;;;1.80;;
17763;SDS011;22245;52.832;13.816;2023-03-23T13:53:14;2.40;;;1.60;;
17763;SDS011;22245;52.832;13.816;2023-03-23T13:56:42;2.65;;;1.50;;
17763;SDS011;22245;52.832;13.816;2023-03-23T14:00:10;3.35;;;1.70;;
17763;SDS011;22245;52.832;13.816;2023-03-23T14:03:46;4.20;;;1.73;;
17763;SDS011;22245;52.832;13.816;2023-03-23T14:07:09;3.05;;;1.92;;
17763;SDS011;22245;52.832;13.816;2023-03-23T14:10:34;6.50;;;1.60;;
17763;SDS011;22245;52.832;13.816;2023-03-23T14:13:58;4.00;;;1.73;;
17763;SDS011;22245;52.832;13.816;2023-03-23T14:17:22;2.58;;;1.38;;
17763;SDS011;22245;52.832;13.816;2023-03-23T14:20:46;6.05;;;1.73;;
17763;SDS011;22245;52.832;13.816;2023-03-23T14:24:09;3.72;;;1.60;;
17763;SDS011;22245;52.832;13.816;2023-03-23T14:27:32;3.47;;;1.50;;
17763;SDS011;22245;52.832;13.816;2023-03-23T14:30:53;4.07;;;1.83;;
17763;SDS011;22245;52.832;13.816;2023-03-23T14:34:18;4.55;;;1.75;;
17763;SDS011;22245;52.832;13.816;2023-03-23T14:37:40;4.32;;;1.98;;
17763;SDS011;22245;52.832;13.816;2023-03-23T14:41:02;5.43;;;2.22;;
17763;SDS011;22245;52.832;13.816;2023-03-23T14:44:26;6.32;;;2.40;;
17763;SDS011;22245;52.832;13.816;2023-03-23T14:47:50;7.70;;;3.28;;
17763;SDS011;22245;52.832;13.816;2023-03-23T14:51:16;6.25;;;2.35;;
17763;SDS011;22245;52.832;13.816;2023-03-23T14:54:39;4.43;;;2.20;;
17763;SDS011;22245;52.832;13.816;2023-03-23T14:58:05;4.43;;;1.90;;
17763;SDS011;22245;52.832;13.816;2023-03-23T15:01:31;3.28;;;2.03;;
17763;SDS011;22245;52.832;13.816;2023-03-23T15:04:54;3.05;;;1.80;;
17763;SDS011;22245;52.832;13.816;2023-03-23T15:08:22;3.25;;;1.85;;
17763;SDS011;22245;52.832;13.816;2023-03-23T15:11:52;5.55;;;2.13;;
17763;SDS011;22245;52.832;13.816;2023-03-23T15:15:18;3.90;;;2.00;;
17763;SDS011;22245;52.832;13.816;2023-03-23T15:18:44;4.88;;;2.42;;
17763;SDS011;22245;52.832;13.816;2023-03-23T15:22:14;4.78;;;2.70;;
17763;SDS011;22245;52.832;13.816;2023-03-23T15:25:39;7.13;;;4.20;;
17763;SDS011;22245;52.832;13.816;2023-03-23T15:29:13;2.55;;;2.28;;
17763;SDS011;22245;52.832;13.816;2023-03-23T15:32:38;5.22;;;3.03;;
17763;SDS011;22245;52.832;13.816;2023-03-23T15:36:06;6.18;;;3.22;;
17763;SDS011;22245;52.832;13.816;2023-03-23T15:39:29;8.32;;;3.90;;
17763;SDS011;22245;52.832;13.816;2023-03-23T15:43:05;6.55;;;2.70;;
17763;SDS011;22245;52.832;13.816;2023-03-23T15:46:35;4.57;;;2.00;;
17763;SDS011;22245;52.832;13.816;2023-03-23T15:50:11;5.45;;;2.58;;
17763;SDS011;22245;52.832;13.816;2023-03-23T15:53:35;5.18;;;2.20;;
17763;SDS011;22245;52.832;13.816;2023-03-23T15:56:58;5.07;;;2.33;;
17763;SDS011;22245;52.832;13.816;2023-03-23T16:00:20;7.03;;;2.10;;
17763;SDS011;22245;52.832;13.816;2023-03-23T16:03:44;4.65;;;2.20;;
17763;SDS011;22245;52.832;13.816;2023-03-23T16:07:09;5.72;;;2.45;;
17763;SDS011;22245;52.832;13.816;2023-03-23T16:10:34;3.97;;;2.58;;
17763;SDS011;22245;52.832;13.816;2023-03-23T16:13:56;4.88;;;2.55;;
17763;SDS011;22245;52.832;13.816;2023-03-23T16:17:19;3.88;;;1.90;;
17763;SDS011;22245;52.832;13.816;2023-03-23T16:20:41;2.40;;;1.77;;
17763;SDS011;22245;52.832;13.816;2023-03-23T16:24:02;5.00;;;2.05;;
17763;SDS011;22245;52.832;13.816;2023-03-23T16:27:26;4.03;;;2.42;;
17763;SDS011;22245;52.832;13.816;2023-03-23T16:30:48;8.18;;;2.30;;
17763;SDS011;22245;52.832;13.816;2023-03-23T16:34:09;5.03;;;2.25;;
17763;SDS011;22245;52.832;13.816;2023-03-23T16:37:31;6.63;;;2.25;;
17763;SDS011;22245;52.832;13.816;2023-03-23T16:40:53;4.82;;;2.25;;
17763;SDS011;22245;52.832;13.816;2023-03-23T16:44:17;5.65;;;2.20;;
17763;SDS011;22245;52.832;13.816;2023-03-23T16:47:39;3.05;;;1.75;;
17763;SDS011;22245;52.832;13.816;2023-03-23T16:51:01;4.65;;;1.80;;
17763;SDS011;22245;52.832;13.816;2023-03-23T16:54:23;4.38;;;1.55;;
17763;SDS011;22245;52.832;13.816;2023-03-23T16:57:45;3.95;;;2.00;;
17763;SDS011;22245;52.832;13.816;2023-03-23T17:01:08;3.80;;;1.83;;
17763;SDS011;22245;52.832;13.816;2023-03-23T17:04:30;2.95;;;1.80;;
17763;SDS011;22245;52.832;13.816;2023-03-23T17:07:52;3.40;;;1.73;;
17763;SDS011;22245;52.832;13.816;2023-03-23T17:11:15;3.53;;;1.70;;
17763;SDS011;22245;52.832;13.816;2023-03-23T17:14:37;4.82;;;1.90;;
17763;SDS011;22245;52.832;13.816;2023-03-23T17:18:00;5.00;;;2.00;;
17763;SDS011;22245;52.832;13.816;2023-03-23T17:21:23;8.10;;;3.35;;
17763;SDS011;22245;52.832;13.816;2023-03-23T17:24:46;6.00;;;2.92;;
17763;SDS011;22245;52.832;13.816;2023-03-23T17:28:08;4.18;;;2.20;;
17763;SDS011;22245;52.832;13.816;2023-03-23T17:31:30;5.90;;;2.50;;
17763;SDS011;22245;52.832;13.816;2023-03-23T17:34:53;3.42;;;1.98;;
17763;SDS011;22245;52.832;13.816;2023-03-23T17:38:15;4.60;;;2.25;;
17763;SDS011;22245;52.832;13.816;2023-03-23T17:41:37;4.68;;;2.22;;
17763;SDS011;22245;52.832;13.816;2023-03-23T17:44:59;3.58;;;1.73;;
17763;SDS011;22245;52.832;13.816;2023-03-23T17:48:20;4.78;;;1.90;;
17763;SDS011;22245;52.832;13.816;2023-03-23T17:51:44;4.00;;;1.80;;
17763;SDS011;22245;52.832;13.816;2023-03-23T17:55:06;4.35;;;1.80;;
17763;SDS011;22245;52.832;13.816;2023-03-23T17:58:28;2.50;;;1.98;;
17763;SDS011;22245;52.832;13.816;2023-03-23T18:01:50;5.03;;;2.90;;
17763;SDS011;22245;52.832;13.816;2023-03-23T18:05:12;5.50;;;1.80;;
17763;SDS011;22245;52.832;13.816;2023-03-23T18:08:36;2.80;;;1.67;;
17763;SDS011;22245;52.832;13.816;2023-03-23T18:11:58;4.10;;;1.67;;
17763;SDS011;22245;52.832;13.816;2023-03-23T18:15:20;2.33;;;1.83;;
17763;SDS011;22245;52.832;13.816;2023-03-23T18:19:02;2.17;;;1.40;;
17763;SDS011;22245;52.832;13.816;2023-03-23T18:22:23;3.45;;;1.88;;
17763;SDS011;22245;52.832;13.816;2023-03-23T18:25:46;2.20;;;1.40;;
17763;SDS011;22245;52.832;13.816;2023-03-23T18:29:09;3.10;;;1.42;;
17763;SDS011;22245;52.832;13.816;2023-03-23T18:32:33;4.90;;;2.33;;
17763;SDS011;22245;52.832;13.816;2023-03-23T18:35:56;5.57;;;1.83;;
17763;SDS011;22245;52.832;13.816;2023-03-23T18:39:19;5.00;;;2.50;;
17763;SDS011;22245;52.832;13.816;2023-03-23T18:42:42;4.50;;;2.00;;
17763;SDS011;22245;52.832;13.816;2023-03-23T18:46:05;2.60;;;1.40;;
17763;SDS011;22245;52.832;13.816;2023-03-23T18:49:28;5.30;;;1.92;;
17763;SDS011;22245;52.832;13.816;2023-03-23T18:52:52;3.25;;;1.73;;
17763;SDS011;22245;52.832;13.816;2023-03-23T18:56:15;2.38;;;1.50;;
17763;SDS011;22245;52.832;13.816;2023-03-23T18:59:39;3.83;;;1.85;;
17763;SDS011;22245;52.832;13.816;2023-03-23T19:03:01;5.78;;;1.60;;
17763;SDS011;22245;52.832;13.816;2023-03-23T19:06:23;3.38;;;1.83;;
17763;SDS011;22245;52.832;13.816;2023-03-23T19:09:47;3.65;;;1.60;;
17763;SDS011;22245;52.832;13.816;2023-03-23T19:13:08;4.82;;;1.75;;
17763;SDS011;22245;52.832;13.816;2023-03-23T19:16:33;3.83;;;1.60;;
17763;SDS011;22245;52.832;13.816;2023-03-23T19:19:55;5.00;;;1.67;;
17763;SDS011;22245;52.832;13.816;2023-03-23T19:23:17;3.42;;;1.50;;
17763;SDS011;22245;52.832;13.816;2023-03-23T19:26:56;3.60;;;1.65;;
17763;SDS011;22245;52.832;13.816;2023-03-23T19:30:17;5.18;;;1.83;;
17763;SDS011;22245;52.832;13.816;2023-03-23T19:33:40;4.43;;;1.85;;
17763;SDS011;22245;52.832;13.816;2023-03-23T19:37:02;3.92;;;1.80;;
17763;SDS011;22245;52.832;13.816;2023-03-23T19:40:29;4.30;;;1.73;;
17763;SDS011;22245;52.832;13.816;2023-03-23T19:44:02;4.13;;;1.70;;
17763;SDS011;22245;52.832;13.816;2023-03-23T19:47:25;4.70;;;1.73;;
17763;SDS011;22245;52.832;13.816;2023-03-23T19:50:48;4.68;;;1.60;;
17763;SDS011;22245;52.832;13.816;2023-03-23T19:54:11;4.00;;;1.80;;
17763;SDS011;22245;52.832;13.816;2023-03-23T19:57:33;3.33;;;1.70;;
17763;SDS011;22245;52.832;13.816;2023-03-23T20:01:00;4.50;;;2.05;;
17763;SDS011;22245;52.832;13.816;2023-03-23T20:04:21;2.72;;;1.92;;
17763;SDS011;22245;52.832;13.816;2023-03-23T20:07:44;5.15;;;1.77;;
17763;SDS011;22245;52.832;13.816;2023-03-23T20:11:11;3.42;;;2.13;;
17763;SDS011;22245;52.832;13.816;2023-03-23T20:14:36;4.40;;;1.80;;
17763;SDS011;22245;52.832;13.816;2023-03-23T20:18:04;2.67;;;1.90;;
17763;SDS011;22245;52.832;13.816;2023-03-23T20:21:27;3.78;;;2.00;;
17763;SDS011;22245;52.832;13.816;2023-03-23T20:24:49;5.60;;;2.38;;
17763;SDS011;22245;52.832;13.816;2023-03-23T20:28:10;2.28;;;1.70;;
17763;SDS011;22245;52.832;13.816;2023-03-23T20:31:33;5.93;;;2.17;;